Flight Track Log - Related Links

Times and Time Zones

All times are in EDT time to prevent confusion due to time zone crossing. See the AAL963 flight status page for this flight to view local times or setup timezone preferences in your user account.

Time Position Orientation Groundspeed Altitude Reporting Facility
EDT Latitude Longitude Course Direction KTS MPH feet Rate Location/Type
Mon 09:44:24 PM 32.8730 -97.0300 179° South 185 213 1,600  Level FlightAware ADS-B
Mon 09:44:38 PM 32.8610 -97.0300 180° South 188 216 2,100 1,737 Climbing FlightAware ADS-B
Mon 09:45:02 PM 32.8380 -97.0300 180° South 217 250 2,700 1,696 Climbing FlightAware ADS-B
Mon 09:45:24 PM 32.8140 -97.0300 180° South 238 274 3,400 2,286 Climbing FlightAware ADS-B
Mon 09:45:44 PM 32.7920 -97.0300 180° South 244 281 4,300 2,679 Climbing FlightAware ADS-B
Mon 09:46:20 PM 32.7540 -97.0300 180° South 248 285 5,900 2,717 Climbing FlightAware ADS-B
Mon 09:46:37 PM 32.7320 -97.0300 180° South 254 292 6,700 2,125 Climbing FlightAware ADS-B
Mon 09:47:08 PM 32.6950 -97.0260 175° South 274 315 7,600 1,765 Climbing FlightAware ADS-B
Mon 09:47:28 PM 32.6730 -97.0140 155° Southeast 287 330 8,200 1,950 Climbing FlightAware ADS-B
Mon 09:47:48 PM 32.6470 -96.9980 153° Southeast 292 336 8,900 1,200 Climbing FlightAware ADS-B
Mon 09:48:13 PM 32.6150 -96.9810 156° South 296 341 9,100 667 Climbing FlightAware ADS-B
Mon 09:48:33 PM 32.5910 -96.9700 159° South 291 335 9,400 1,200 Climbing FlightAware ADS-B
Mon 09:48:53 PM 32.5660 -96.9580 158° South 299 344 9,900 1,320 Climbing FlightAware ADS-B
Mon 09:49:23 PM 32.5250 -96.9370 157° South 312 359 10,500 1,183 Climbing FlightAware ADS-B
Mon 09:50:04 PM 32.4660 -96.9070 157° South 357 411 11,300 1,562 Climbing FlightAware ADS-B
Mon 09:50:36 PM 32.4150 -96.8810 157° South 374 430 12,400 2,261 Climbing FlightAware ADS-B
Mon 09:51:13 PM 32.3560 -96.8510 157° South 382 440 13,900 2,486 Climbing FlightAware ADS-B
Mon 09:51:46 PM 32.3010 -96.8280 161° South 386 444 15,300 2,348 Climbing FlightAware ADS-B
Mon 09:52:22 PM 32.2360 -96.8090 166° South 395 455 16,600 2,000 Climbing FlightAware ADS-B
Mon 09:52:58 PM 32.1710 -96.7910 167° South 405 466 17,700 1,948 Climbing FlightAware ADS-B
Mon 09:53:39 PM 32.0940 -96.7700 167° South 416 479 19,100 2,026 Climbing FlightAware ADS-B
Mon 09:54:15 PM 32.0260 -96.7520 167° South 423 487 20,300 1,917 Climbing FlightAware ADS-B
Mon 09:54:51 PM 31.9570 -96.7340 168° South 431 496 21,400 1,676 Climbing FlightAware ADS-B
Mon 09:55:23 PM 31.8970 -96.7180 167° South 440 506 22,200 1,588 Climbing FlightAware ADS-B
Mon 09:55:59 PM 31.8240 -96.6990 168° South 449 517 23,200 1,784 Climbing FlightAware ADS-B
Mon 09:56:37 PM 31.7480 -96.6790 167° South 452 520 24,400 1,853 Climbing FlightAware ADS-B
Mon 09:57:07 PM 31.6830 -96.6630 168° South 456 525 25,300 1,727 Climbing FlightAware ADS-B
Mon 09:57:43 PM 31.6070 -96.6440 168° South 464 534 26,300 1,667 Climbing FlightAware ADS-B
Mon 09:58:19 PM 31.5300 -96.6250 168° South 468 539 27,300 1,479 Climbing FlightAware ADS-B
Mon 09:58:56 PM 31.4560 -96.6060 168° South 476 548 28,100 1,412 Climbing FlightAware ADS-B
Mon 09:59:27 PM 31.3830 -96.5870 167° South 482 555 28,900 1,474 Climbing FlightAware ADS-B
Mon 09:59:53 PM 31.3300 -96.5640 160° South 483 556 29,500 1,304 Climbing FlightAware ADS-B
Mon 10:00:13 PM 31.2930 -96.5340 145° Southeast 484 557 29,900 1,200 Climbing FlightAware ADS-B
Mon 10:00:33 PM 31.2620 -96.4960 134° Southeast 486 559 30,300 1,179 Climbing FlightAware ADS-B
Mon 10:01:09 PM 31.2180 -96.4160 123° Southeast 491 565 31,000 1,183 Climbing FlightAware ADS-B
Mon 10:01:44 PM 31.1740 -96.3360 123° Southeast 498 573 31,700 882 Climbing FlightAware ADS-B
Mon 10:02:17 PM 31.1300 -96.2650 126° Southeast 501 577 32,000 870 Climbing FlightAware ADS-B
Mon 10:02:53 PM 31.0810 -96.1860 126° Southeast 504 580 32,700 845 Climbing FlightAware ADS-B
Mon 10:03:28 PM 31.0320 -96.1090 127° Southeast 501 577 33,000 254 Climbing FlightAware ADS-B
Mon 10:04:04 PM 30.9830 -96.0310 126° Southeast 502 578 33,000  Level FlightAware ADS-B
Mon 10:04:36 PM 30.9380 -95.9610 127° Southeast 504 580 33,000  Level FlightAware ADS-B
Mon 10:05:13 PM 30.8870 -95.8820 127° Southeast 504 580 33,000  Level FlightAware ADS-B
Mon 10:05:46 PM 30.8430 -95.8120 126° Southeast 506 582 33,000  Level FlightAware ADS-B
Mon 10:06:22 PM 30.7910 -95.7290 126° Southeast 506 582 33,000  Level FlightAware ADS-B
Mon 10:06:57 PM 30.7460 -95.6600 127° Southeast 506 582 33,000  Level FlightAware ADS-B
Mon 10:07:33 PM 30.6920 -95.5750 126° Southeast 508 585 33,000  Level FlightAware ADS-B
Mon 10:08:09 PM 30.6420 -95.4970 127° Southeast 508 585 33,000  Level FlightAware ADS-B
Mon 10:08:41 PM 30.5960 -95.4270 127° Southeast 509 586 33,000  Level FlightAware ADS-B
Mon 10:09:17 PM 30.5460 -95.3480 126° Southeast 511 588 33,000  Level FlightAware ADS-B
Mon 10:09:50 PM 30.4990 -95.2760 127° Southeast 512 589 33,000  Level FlightAware ADS-B
Mon 10:10:27 PM 30.4460 -95.1940 127° Southeast 515 593 33,000  Level FlightAware ADS-B
Mon 10:11:03 PM 30.3940 -95.1140 127° Southeast 517 595 33,000  Level FlightAware ADS-B
Mon 10:11:36 PM 30.3470 -95.0410 127° Southeast 519 597 33,000  Level FlightAware ADS-B
Mon 10:12:13 PM 30.2930 -94.9580 127° Southeast 522 601 33,000  Level FlightAware ADS-B
Mon 10:12:49 PM 30.2400 -94.8770 127° Southeast 522 601 33,000  Level FlightAware ADS-B
Mon 10:13:22 PM 30.1930 -94.8050 127° Southeast 520 598 33,000  Level FlightAware ADS-B
Mon 10:13:27 PM 30.1755 -94.7780 127° Southeast 521 600 33,000  Level FlightAware ADS-B (EGLF / FAB)
Mon 10:13:58 PM 30.1410 -94.7250 127° Southeast 522 601 33,000  Level FlightAware ADS-B
Mon 10:14:33 PM 30.0890 -94.6470 128° Southeast 522 601 33,000  Level FlightAware ADS-B
Mon 10:15:10 PM 30.0360 -94.5650 127° Southeast 522 601 33,000  Level FlightAware ADS-B
Mon 10:15:42 PM 29.9890 -94.4940 127° Southeast 523 602 33,000  Level FlightAware ADS-B
Mon 10:16:16 PM 29.9380 -94.4170 127° Southeast 525 604 33,000  Level FlightAware ADS-B
Mon 10:16:38 PM 29.8991 -94.3580 127° Southeast 525 604 33,000  Level FlightAware ADS-B (EGLF / FAB)
Mon 10:18:05 PM 29.7780 -94.1760 128° Southeast 526 605 33,000  Level FlightAware ADS-B
Mon 10:18:37 PM 29.7310 -94.1040 127° Southeast 525 604 33,000  Level FlightAware ADS-B
Mon 10:19:11 PM 29.6870 -94.0380 127° Southeast 525 604 33,000  Level FlightAware ADS-B
Mon 10:19:47 PM 29.6420 -93.9690 127° Southeast 525 604 33,000  Level FlightAware ADS-B
Mon 10:20:16 PM 29.5435 -93.9143 154° Southeast 511 588 33,000  Level FlightAware ADS-B (EGLF / FAB)
Mon 10:20:47 PM 29.4833 -93.8642 144° Southeast 510 587 33,000  Level FlightAware ADS-B (EGLF / FAB)
Mon 10:21:37 PM 29.3929 -93.7877 144° Southeast 510 587 33,000  Level FlightAware ADS-B (EGLF / FAB)
Mon 10:22:37 PM 29.3090 -93.7140 143° Southeast 509 586 33,000  Level FlightAware ADS-B
Mon 10:22:47 PM 29.2565 -93.6715 145° Southeast 512 589 33,000  Level FlightAware ADS-B (EGLF / FAB)
Mon 10:23:49 PM 29.1930 -93.6150 142° Southeast 509 586 33,000  Level FlightAware ADS-B
Mon 10:24:25 PM 29.1360 -93.5650 143° Southeast 509 586 33,000  Level FlightAware ADS-B
Mon 10:25:02 PM 29.0770 -93.5140 143° Southeast 509 586 33,000  Level FlightAware ADS-B
Mon 10:25:38 PM 29.0190 -93.4650 144° Southeast 509 586 33,000  Level FlightAware ADS-B
Mon 10:26:14 PM 28.9620 -93.4150 142° Southeast 509 586 33,000  Level FlightAware ADS-B
Mon 10:26:51 PM 28.9030 -93.3640 143° Southeast 509 586 33,000  Level FlightAware ADS-B
Mon 10:27:38 PM 28.8270 -93.3000 144° Southeast 509 586 33,000  Level FlightAware ADS-B
Mon 10:28:14 PM 28.7700 -93.2500 142° Southeast 509 586 33,000  Level FlightAware ADS-B
Mon 10:28:50 PM 28.7120 -93.2010 143° Southeast 509 586 33,000  Level FlightAware ADS-B
Mon 10:29:26 PM 28.6550 -93.1510 142° Southeast 509 586 33,000  Level FlightAware ADS-B
Mon 10:30:03 PM 28.5960 -93.1000 143° Southeast 509 586 33,000  Level FlightAware ADS-B
Mon 10:30:40 PM 28.5360 -93.0500 144° Southeast 509 586 33,000  Level FlightAware ADS-B
Mon 10:31:16 PM 28.4790 -93.0000 142° Southeast 509 586 33,000  Level FlightAware ADS-B
Mon 10:32:03 PM 28.2186 -92.7994 142° Southeast 514 592 33,000 -56 Level Houston Center
Mon 10:33:04 PM 28.1025 -92.7039 144° Southeast 516 594 32,900 -49 Descending Houston Center
Mon 10:34:05 PM 27.9861 -92.6100 145° Southeast 514 592 32,900 49 Level Houston Center
Mon 10:35:06 PM 27.8694 -92.5131 144° Southeast 518 596 33,000 49 Climbing Houston Center
Mon 10:36:07 PM 27.7531 -92.4175 144° Southeast 518 596 33,000  Level Houston Center
Mon 10:37:07 PM 27.6364 -92.3244 145° Southeast 515 593 33,000  Level Houston Center
Mon 10:38:08 PM 27.5211 -92.2300 144° Southeast 514 592 33,000 -49 Level Houston Center
Mon 10:39:09 PM 27.4058 -92.1367 144° Southeast 512 589 32,900  Descending Houston Center
Mon 10:40:10 PM 27.3147 -92.0047 128° Southeast 526 605 33,000 49 Climbing Houston Center
Mon 10:41:11 PM 27.2133 -91.8453 126° Southeast 526 605 33,000  Level Houston Center
Mon 10:42:12 PM 27.1569 -91.7275 118° Southeast 531 611 33,000 -49 Level Houston Center
Mon 10:43:13 PM 27.0792 -91.5672 119° Southeast 532 612 32,900 -49 Descending Houston Center
Mon 10:44:14 PM 27.0094 -91.4253 119° Southeast 530 610 32,900 Level Houston Center
Mon 10:46:00 PM 26.8044 -91.2912 150° Southeast  Level FlightAware Approximate
Mon 10:53:00 PM 25.9927 -90.7747 150° Southeast  Level FlightAware Approximate
Mon 10:54:00 PM 25.8765 -90.7017 151° Southeast  Level FlightAware Approximate
Mon 10:55:00 PM 25.7602 -90.6289 151° Southeast  Level FlightAware Approximate
Mon 10:56:00 PM 25.6439 -90.5562 151° Southeast  Level FlightAware Approximate
Mon 10:57:00 PM 25.5276 -90.4837 151° Southeast  Level FlightAware Approximate
Mon 10:58:00 PM 25.4112 -90.4113 151° Southeast  Level FlightAware Approximate
Mon 10:59:00 PM 25.2948 -90.3391 151° Southeast  Level FlightAware Approximate
Mon 11:00:00 PM 25.1783 -90.2670 151° Southeast  Level FlightAware Approximate
Mon 11:01:00 PM 25.0618 -90.1950 151° Southeast  Level FlightAware Approximate
Mon 11:02:00 PM 24.9453 -90.1231 151° Southeast  Level FlightAware Approximate
Mon 11:02:16 PM 24.8250 -90.1250 151° Southeast 33,000  Level FlightAware ADS-B
Mon 11:02:16 PM 24.8250 -90.1250 146° Southeast 33,000  Level FlightAware ADS-B
Mon 11:04:00 PM 24.6417 -89.9696 142° Southeast  Level FlightAware Approximate
Mon 11:05:00 PM 24.5358 -89.8802 142° Southeast  Level FlightAware Approximate
Mon 11:06:00 PM 24.4327 -89.7962 146° Southeast  Level FlightAware Approximate
Mon 11:07:00 PM 24.3211 -89.7145 146° Southeast  Level FlightAware Approximate
Mon 11:08:00 PM 24.2096 -89.6330 146° Southeast  Level FlightAware Approximate
Mon 11:11:00 PM 23.9904 -89.2234 135° Southeast  Level Estimated
Mon 11:12:31 PM 23.6900 -89.1660 142° Southeast 505 581 33,000  Level FlightAware ADS-B
Mon 11:13:12 PM 23.6270 -89.1080 140° Southeast 506 582 33,000  Level FlightAware ADS-B
Mon 11:13:43 PM 23.5690 -89.0550 140° Southeast 507 583 33,000  Level FlightAware ADS-B
Mon 11:14:24 PM 23.4810 -88.9750 140° Southeast 506 582 33,000  Level FlightAware ADS-B
Mon 11:14:57 PM 23.4370 -88.9330 139° Southeast 506 582 33,000  Level FlightAware ADS-B
Mon 11:15:29 PM 23.3730 -88.8750 140° Southeast 505 581 33,000  Level FlightAware ADS-B
Mon 11:16:12 PM 23.2930 -88.8010 140° Southeast 505 581 33,000  Level FlightAware ADS-B
Mon 11:16:48 PM 23.1870 -88.7040 140° Southeast 504 580 33,000  Level FlightAware ADS-B
Mon 11:17:25 PM 23.1670 -88.6850 139° Southeast 504 580 33,000  Level FlightAware ADS-B
Mon 11:18:00 PM 23.1080 -88.6320 140° Southeast 505 581 33,000  Level FlightAware ADS-B
Mon 11:18:36 PM 23.0050 -88.5380 140° Southeast 506 582 33,000  Level FlightAware ADS-B
Mon 11:19:08 PM 22.9500 -88.4880 140° Southeast 506 582 33,000  Level FlightAware ADS-B
Mon 11:19:44 PM 22.8800 -88.4240 140° Southeast 506 582 33,000  Level FlightAware ADS-B
Mon 11:20:20 PM 22.8200 -88.3690 140° Southeast 504 580 33,000  Level FlightAware ADS-B
Mon 11:20:59 PM 22.7480 -88.3040 140° Southeast 504 580 33,000  Level FlightAware ADS-B
Mon 11:21:40 PM 22.6760 -88.2390 140° Southeast 504 580 33,000  Level FlightAware ADS-B
Mon 11:22:19 PM 22.6110 -88.1790 140° Southeast 504 580 33,000  Level FlightAware ADS-B
Mon 11:22:54 PM 22.5430 -88.1190 141° Southeast 504 580 33,000  Level FlightAware ADS-B
Mon 11:23:28 PM 22.4820 -88.0630 140° Southeast 503 579 33,000  Level FlightAware ADS-B
Mon 11:24:05 PM 22.4180 -88.0050 140° Southeast 503 579 33,000  Level FlightAware ADS-B
Mon 11:24:47 PM 22.3430 -87.9380 140° Southeast 504 580 33,000  Level FlightAware ADS-B
Mon 11:25:19 PM 22.2880 -87.8880 140° Southeast 504 580 33,000  Level FlightAware ADS-B
Mon 11:26:02 PM 22.2060 -87.8140 140° Southeast 504 580 33,000  Level FlightAware ADS-B
Mon 11:26:47 PM 22.1250 -87.7420 141° Southeast 505 581 33,000  Level FlightAware ADS-B
Mon 11:27:17 PM 22.0760 -87.6980 140° Southeast 505 581 33,000  Level FlightAware ADS-B
Mon 11:27:54 PM 22.0100 -87.6390 140° Southeast 504 580 33,000  Level FlightAware ADS-B
Mon 11:28:28 PM 21.9500 -87.5850 140° Southeast 504 580 33,000  Level FlightAware ADS-B
Mon 11:29:09 PM 21.8720 -87.5150 140° Southeast 505 581 33,000  Level FlightAware ADS-B
Mon 11:29:42 PM 21.8050 -87.4550 140° Southeast 506 582 33,000  Level FlightAware ADS-B
Mon 11:30:25 PM 21.7360 -87.3940 141° Southeast 506 582 33,000  Level FlightAware ADS-B
Mon 11:30:58 PM 21.6780 -87.3430 141° Southeast 507 583 33,000  Level FlightAware ADS-B
Mon 11:31:34 PM 21.6030 -87.2750 140° Southeast 507 583 33,000  Level FlightAware ADS-B
Mon 11:32:08 PM 21.5480 -87.2270 141° Southeast 507 583 33,000  Level FlightAware ADS-B
Mon 11:32:41 PM 21.4880 -87.1740 141° Southeast 507 583 33,000  Level FlightAware ADS-B
Mon 11:33:14 PM 21.4220 -87.1150 140° Southeast 507 583 33,000  Level FlightAware ADS-B
Mon 11:33:52 PM 21.3470 -87.0490 141° Southeast 507 583 33,000  Level FlightAware ADS-B
Mon 11:34:28 PM 21.2810 -86.9910 141° Southeast 508 585 33,000  Level FlightAware ADS-B
Mon 11:35:04 PM 21.2160 -86.9330 140° Southeast 506 582 33,000  Level FlightAware ADS-B
Mon 11:35:40 PM 21.1490 -86.8750 141° Southeast 505 581 33,000  Level FlightAware ADS-B
Mon 11:36:12 PM 21.0930 -86.8250 140° Southeast 505 581 33,000  Level FlightAware ADS-B
Mon 11:36:48 PM 21.0270 -86.7670 141° Southeast 506 582 33,000  Level FlightAware ADS-B
Mon 11:37:26 PM 20.9590 -86.7080 141° Southeast 507 583 33,000  Level FlightAware ADS-B
Mon 11:37:58 PM 20.9010 -86.6570 141° Southeast 506 582 33,000  Level FlightAware ADS-B
Mon 11:38:34 PM 20.8360 -86.6000 141° Southeast 505 581 33,000  Level FlightAware ADS-B
Mon 11:39:06 PM 20.7780 -86.5490 141° Southeast 505 581 33,000  Level FlightAware ADS-B
Mon 11:39:44 PM 20.7090 -86.4890 141° Southeast 503 579 33,000  Level FlightAware ADS-B
Mon 11:40:19 PM 20.6540 -86.4400 140° Southeast 502 578 33,000  Level FlightAware ADS-B
Mon 11:40:52 PM 20.5870 -86.3820 141° Southeast 502 578 33,000  Level FlightAware ADS-B
Mon 11:41:26 PM 20.5260 -86.3290 141° Southeast 500 575 33,000  Level FlightAware ADS-B
Mon 11:42:06 PM 20.4630 -86.2730 140° Southeast 500 575 33,000  Level FlightAware ADS-B
Mon 11:42:52 PM 20.3790 -86.2010 141° Southeast 501 577 33,000  Level FlightAware ADS-B
Mon 11:43:25 PM 20.3210 -86.1500 140° Southeast 501 577 33,000  Level FlightAware ADS-B
Mon 11:44:06 PM 20.2400 -86.0810 141° Southeast 501 577 33,000  Level FlightAware ADS-B
Mon 11:44:38 PM 20.1810 -86.0290 140° Southeast 500 575 33,000  Level FlightAware ADS-B
Mon 11:45:13 PM 20.1190 -85.9760 141° Southeast 499 574 33,000  Level FlightAware ADS-B
Mon 11:45:49 PM 20.0550 -85.9200 141° Southeast 499 574 33,000  Level FlightAware ADS-B
Mon 11:46:21 PM 19.9950 -85.8670 140° Southeast 498 573 33,000  Level FlightAware ADS-B
Mon 11:46:59 PM 19.9300 -85.8050 138° Southeast 499 574 33,000  Level FlightAware ADS-B
Mon 11:47:35 PM 19.8690 -85.7460 138° Southeast 500 575 33,000  Level FlightAware ADS-B
Mon 11:48:07 PM 19.8150 -85.6920 137° Southeast 499 574 33,000  Level FlightAware ADS-B
Mon 11:48:45 PM 19.7550 -85.6250 134° Southeast 499 574 33,000  Level FlightAware ADS-B
Mon 11:49:30 PM 19.6900 -85.5540 134° Southeast 499 574 33,000  Level FlightAware ADS-B
Mon 11:50:14 PM 19.6190 -85.4780 135° Southeast 499 574 33,000  Level FlightAware ADS-B
Mon 11:50:50 PM 19.5700 -85.4240 134° Southeast 499 574 33,000  Level FlightAware ADS-B
Mon 11:51:23 PM 19.4990 -85.3520 136° Southeast 495 570 33,000  Level FlightAware ADS-B
Mon 11:52:02 PM 19.4460 -85.2940 134° Southeast 495 570 33,000  Level FlightAware ADS-B
Mon 11:52:34 PM 19.3920 -85.2400 137° Southeast 532 612 33,000  Level FlightAware ADS-B
Mon 11:53:06 PM 19.3340 -85.1780 135° Southeast 498 573 33,000  Level FlightAware ADS-B
Mon 11:53:44 PM 19.2850 -85.1250 134° Southeast 499 574 33,000  Level FlightAware ADS-B
Mon 11:54:24 PM 19.2120 -85.0470 135° Southeast 499 574 33,000  Level FlightAware ADS-B
Mon 11:55:00 PM 19.1630 -84.9940 134° Southeast 499 574 33,000  Level FlightAware ADS-B
Mon 11:55:37 PM 19.1120 -84.9380 134° Southeast 499 574 33,000  Level FlightAware ADS-B
Mon 11:56:13 PM 19.0630 -84.8850 134° Southeast 499 574 33,000  Level FlightAware ADS-B
Mon 11:56:49 PM 19.0140 -84.8310 134° Southeast 499 574 33,000  Level FlightAware ADS-B
Mon 11:57:25 PM 18.9650 -84.7770 134° Southeast 499 574 33,000  Level FlightAware ADS-B
Mon 11:58:01 PM 18.9160 -84.7230 134° Southeast 499 574 33,000  Level FlightAware ADS-B
Mon 11:58:38 PM 18.8660 -84.6680 134° Southeast 499 574 33,000  Level FlightAware ADS-B
Mon 11:59:14 PM 18.8170 -84.6140 134° Southeast 499 574 33,000  Level FlightAware ADS-B
Mon 11:59:50 PM 18.7680 -84.5610 134° Southeast 499 574 33,000  Level FlightAware ADS-B
Tue 12:00:26 AM 18.7180 -84.5070 134° Southeast 499 574 33,000  Level FlightAware ADS-B
Tue 12:01:02 AM 18.6690 -84.4530 134° Southeast 499 574 33,000  Level FlightAware ADS-B
Tue 12:01:38 AM 18.6200 -84.4000 134° Southeast 499 574 33,000  Level FlightAware ADS-B
Tue 12:02:14 AM 18.5710 -84.3460 134° Southeast 499 574 33,000  Level FlightAware ADS-B
Tue 12:02:50 AM 18.5220 -84.2930 134° Southeast 499 574 33,000  Level FlightAware ADS-B
Tue 12:03:26 AM 18.4730 -84.2390 134° Southeast 499 574 33,000  Level FlightAware ADS-B
Tue 12:06:00 AM 18.2453 -83.9673 131° Southeast  Level FlightAware Approximate
Tue 12:07:00 AM 18.1564 -83.8616 131° Southeast  Level FlightAware Approximate
Tue 12:08:00 AM 18.0676 -83.7560 132° Southeast  Level FlightAware Approximate
Tue 12:09:00 AM 17.9786 -83.6506 132° Southeast  Level FlightAware Approximate
Tue 12:10:00 AM 17.8821 -83.5465 135° Southeast  Level FlightAware Approximate
Tue 12:11:00 AM 17.7864 -83.4478 136° Southeast  Level FlightAware Approximate
Tue 12:12:00 AM 17.6907 -83.3493 136° Southeast  Level FlightAware Approximate
Tue 12:13:00 AM 17.5950 -83.2508 136° Southeast  Level FlightAware Approximate
Tue 12:14:00 AM 17.4992 -83.1525 136° Southeast  Level FlightAware Approximate
Tue 12:15:00 AM 17.4034 -83.0542 136° Southeast  Level FlightAware Approximate
Tue 12:16:00 AM 17.3043 -82.9596 139° Southeast  Level FlightAware Approximate
Tue 12:17:00 AM 17.2033 -82.8673 139° Southeast  Level FlightAware Approximate
Tue 12:18:00 AM 17.1023 -82.7751 139° Southeast  Level FlightAware Approximate
Tue 12:19:00 AM 17.0012 -82.6831 139° Southeast  Level FlightAware Approximate
Tue 12:20:00 AM 16.9000 -82.5911 139° Southeast  Level FlightAware Approximate
Tue 12:21:00 AM 16.7989 -82.4992 139° Southeast  Level FlightAware Approximate
Tue 12:22:00 AM 16.6977 -82.4074 139° Southeast  Level FlightAware Approximate
Tue 12:23:00 AM 16.5964 -82.3157 139° Southeast  Level FlightAware Approximate
Tue 12:24:00 AM 16.4948 -82.2238 139° Southeast  Level FlightAware Approximate
Tue 12:25:00 AM 16.3976 -82.1270 134° Southeast  Level FlightAware Approximate
Tue 12:26:00 AM 16.3038 -82.0265 134° Southeast  Level FlightAware Approximate
Tue 12:27:00 AM 16.2100 -81.9260 134° Southeast  Level FlightAware Approximate
Tue 12:28:00 AM 16.1162 -81.8256 134° Southeast  Level FlightAware Approximate
Tue 12:29:00 AM 16.0223 -81.7254 134° Southeast  Level FlightAware Approximate
Tue 12:30:00 AM 15.9283 -81.6252 134° Southeast  Level FlightAware Approximate
Tue 12:31:00 AM 15.8343 -81.5251 134° Southeast  Level FlightAware Approximate
Tue 12:32:00 AM 15.7403 -81.4251 134° Southeast  Level FlightAware Approximate
Tue 12:33:00 AM 15.6475 -81.3240 133° Southeast  Level FlightAware Approximate
Tue 12:34:00 AM 15.5550 -81.2225 133° Southeast  Level FlightAware Approximate
Tue 12:35:00 AM 15.4625 -81.1212 133° Southeast  Level FlightAware Approximate
Tue 12:36:00 AM 15.3699 -81.0199 133° Southeast  Level FlightAware Approximate
Tue 12:37:00 AM 15.2773 -80.9188 133° Southeast  Level FlightAware Approximate
Tue 12:38:00 AM 15.1846 -80.8177 134° Southeast  Level FlightAware Approximate
Tue 12:39:00 AM 15.0919 -80.7167 134° Southeast  Level FlightAware Approximate
Tue 12:40:00 AM 14.9991 -80.6159 142° Southeast  Level FlightAware Approximate
Tue 12:41:00 AM 14.8930 -80.5303 142° Southeast  Level FlightAware Approximate
Tue 12:42:00 AM 14.7869 -80.4447 142° Southeast  Level FlightAware Approximate
Tue 12:43:00 AM 14.6807 -80.3592 142° Southeast  Level FlightAware Approximate
Tue 12:44:00 AM 14.5746 -80.2738 142° Southeast  Level FlightAware Approximate
Tue 12:45:00 AM 14.4684 -80.1885 142° Southeast  Level FlightAware Approximate
Tue 12:46:00 AM 14.3621 -80.1033 142° Southeast  Level FlightAware Approximate
Tue 12:47:00 AM 14.2559 -80.0182 142° Southeast  Level FlightAware Approximate
Tue 12:48:00 AM 14.1496 -79.9331 142° Southeast  Level FlightAware Approximate
Tue 12:49:00 AM 14.0433 -79.8481 142° Southeast  Level FlightAware Approximate
Tue 12:50:00 AM 13.9369 -79.7632 142° Southeast  Level FlightAware Approximate
Tue 12:51:00 AM 13.8305 -79.6784 142° Southeast  Level FlightAware Approximate
Tue 12:52:00 AM 13.7241 -79.5936 142° Southeast  Level FlightAware Approximate
Tue 12:53:00 AM 13.6177 -79.5089 142° Southeast  Level FlightAware Approximate
Tue 12:54:00 AM 13.5112 -79.4243 142° Southeast  Level FlightAware Approximate
Tue 12:55:00 AM 13.4047 -79.3398 142° Southeast  Level FlightAware Approximate
Tue 12:56:00 AM 13.2982 -79.2554 142° Southeast  Level FlightAware Approximate
Tue 12:57:00 AM 13.1916 -79.1710 142° Southeast  Level FlightAware Approximate
Tue 12:58:00 AM 13.0850 -79.0867 142° Southeast  Level FlightAware Approximate
Tue 12:59:00 AM 12.9784 -79.0025 142° Southeast  Level FlightAware Approximate
Tue 12:59:17 AM 12.4360 -79.7000 142° Southeast 488 562 33,000  Level FlightAware ADS-B
Tue 12:59:55 AM 12.3940 -79.6380 125° Southeast 488 562 33,000  Level FlightAware ADS-B
Tue 01:00:48 AM 12.3260 -79.5380 125° Southeast 487 560 33,000  Level FlightAware ADS-B
Tue 01:01:23 AM 12.2720 -79.4610 126° Southeast 492 566 33,000  Level FlightAware ADS-B
Tue 01:02:08 AM 12.2190 -79.3800 124° Southeast 487 560 33,000  Level FlightAware ADS-B
Tue 01:02:44 AM 12.1820 -79.3210 123° Southeast 487 560 33,000  Level FlightAware ADS-B
Tue 01:03:20 AM 12.1440 -79.2620 123° Southeast 487 560 33,000  Level FlightAware ADS-B
Tue 01:03:56 AM 12.1060 -79.2030 123° Southeast 487 560 33,000  Level FlightAware ADS-B
Tue 01:04:32 AM 12.0690 -79.1430 122° Southeast 487 560 33,000  Level FlightAware ADS-B
Tue 01:05:08 AM 12.0310 -79.0840 123° Southeast 487 560 33,000  Level FlightAware ADS-B
Tue 01:05:31 AM 11.8900 -79.0410 163° South 33,000  Level FlightAware ADS-B
Tue 01:06:28 AM 11.8030 -78.9430 132° Southeast 485 558 33,000  Level FlightAware ADS-B
Tue 01:07:05 AM 11.7570 -78.8840 129° Southeast 485 558 33,000  Level FlightAware ADS-B
Tue 01:07:38 AM 11.7030 -78.8160 129° Southeast 490 564 33,000  Level FlightAware ADS-B
Tue 01:08:17 AM 11.6600 -78.7590 128° Southeast 491 565 33,000  Level FlightAware ADS-B
Tue 01:08:53 AM 11.6170 -78.7030 128° Southeast 491 565 33,000  Level FlightAware ADS-B
Tue 01:09:33 AM 11.5540 -78.6260 130° Southeast 492 566 33,000  Level FlightAware ADS-B
Tue 01:10:09 AM 11.5110 -78.5700 128° Southeast 492 566 33,000  Level FlightAware ADS-B
Tue 01:10:45 AM 11.4680 -78.5140 128° Southeast 492 566 33,000  Level FlightAware ADS-B
Tue 01:11:21 AM 11.4250 -78.4580 128° Southeast 492 566 33,000  Level FlightAware ADS-B
Tue 01:11:57 AM 11.3820 -78.4020 128° Southeast 492 566 33,000  Level FlightAware ADS-B
Tue 01:12:33 AM 11.3400 -78.3460 127° Southeast 492 566 33,000  Level FlightAware ADS-B
Tue 01:13:09 AM 11.2970 -78.2900 128° Southeast 492 566 33,000  Level FlightAware ADS-B
Tue 01:13:41 AM 11.2030 -78.1450 123° Southeast 486 559 33,000  Level FlightAware ADS-B
Tue 01:14:16 AM 11.1610 -78.0760 122° Southeast 484 557 33,000  Level FlightAware ADS-B
Tue 01:14:56 AM 11.1150 -77.9980 121° Southeast 484 557 33,000  Level FlightAware ADS-B
Tue 01:15:26 AM 11.0790 -77.9380 121° Southeast 485 558 33,000  Level FlightAware ADS-B
Tue 01:16:22 AM 11.0190 -77.8340 120° Southeast 485 558 33,000  Level FlightAware ADS-B
Tue 01:16:58 AM 10.9840 -77.7740 121° Southeast 485 558 33,000  Level FlightAware ADS-B
Tue 01:17:34 AM 10.9320 -77.6890 122° Southeast 486 559 33,000  Level FlightAware ADS-B
Tue 01:18:14 AM 10.8850 -77.6100 121° Southeast 484 557 33,000  Level FlightAware ADS-B
Tue 01:18:54 AM 10.8360 -77.5270 121° Southeast 485 558 33,000  Level FlightAware ADS-B
Tue 01:19:24 AM 10.8010 -77.4670 121° Southeast 486 559 33,000  Level FlightAware ADS-B
Tue 01:20:03 AM 10.7520 -77.3950 125° Southeast 486 559 33,000  Level FlightAware ADS-B
Tue 01:20:36 AM 10.7100 -77.3420 129° Southeast 490 564 33,000  Level FlightAware ADS-B
Tue 01:21:11 AM 10.6600 -77.2770 128° Southeast 492 566 33,000  Level FlightAware ADS-B
Tue 01:22:05 AM 10.5820 -77.1850 131° Southeast 493 567 33,000  Level FlightAware ADS-B
Tue 01:22:30 AM 10.5400 -77.1420 135° Southeast 527 606 33,000  Level FlightAware ADS-B
Tue 01:22:36 AM 10.5240 -77.1250 134° Southeast 493 567 33,000  Level FlightAware ADS-B
Tue 01:23:21 AM 10.4660 -77.0620 133° Southeast 493 567 33,000  Level FlightAware ADS-B
Tue 01:23:56 AM 10.3980 -76.9930 135° Southeast 493 567 33,000  Level FlightAware ADS-B
Tue 01:24:26 AM 10.3500 -76.9470 137° Southeast 492 566 33,000  Level FlightAware ADS-B
Tue 01:25:02 AM 10.2890 -76.8860 135° Southeast 492 566 33,000  Level FlightAware ADS-B
Tue 01:25:36 AM 10.2380 -76.8360 136° Southeast 493 567 33,000  Level FlightAware ADS-B
Tue 01:26:10 AM 10.1770 -76.7750 135° Southeast 493 567 33,000  Level FlightAware ADS-B
Tue 01:26:45 AM 10.1200 -76.7200 136° Southeast 492 566 33,000  Level FlightAware ADS-B
Tue 01:27:21 AM 10.0660 -76.6660 135° Southeast 491 565 33,000  Level FlightAware ADS-B
Tue 01:27:56 AM 10.0090 -76.6110 136° Southeast 492 566 33,000  Level FlightAware ADS-B
Tue 01:28:30 AM 9.9510 -76.5530 135° Southeast 491 565 33,000  Level FlightAware ADS-B
Tue 01:29:15 AM 9.8820 -76.4850 136° Southeast 491 565 33,000  Level FlightAware ADS-B
Tue 01:29:52 AM 9.8230 -76.4250 135° Southeast 484 557 33,000  Level FlightAware ADS-B
Tue 01:30:32 AM 9.7540 -76.3570 136° Southeast 491 565 33,000  Level FlightAware ADS-B
Tue 01:31:07 AM 9.6970 -76.3010 136° Southeast 493 567 33,000  Level FlightAware ADS-B
Tue 01:31:41 AM 9.6380 -76.2440 136° Southeast 493 567 33,000  Level FlightAware ADS-B
Tue 01:32:16 AM 9.5800 -76.1880 136° Southeast 494 568 33,000  Level FlightAware ADS-B
Tue 01:32:50 AM 9.5250 -76.1350 136° Southeast 494 568 33,000  Level FlightAware ADS-B
Tue 01:33:30 AM 9.4610 -76.0730 136° Southeast 495 570 33,000  Level FlightAware ADS-B
Tue 01:34:00 AM 9.4070 -76.0210 136° Southeast 494 568 33,000  Level FlightAware ADS-B
Tue 01:34:36 AM 9.3480 -75.9630 136° Southeast 494 568 33,000  Level FlightAware ADS-B
Tue 01:35:15 AM 9.2880 -75.9060 137° Southeast 494 568 33,000  Level FlightAware ADS-B
Tue 01:35:55 AM 9.2220 -75.8420 136° Southeast 496 571 33,000  Level FlightAware ADS-B
Tue 01:36:30 AM 9.1590 -75.7840 138° Southeast 498 573 33,000  Level FlightAware ADS-B
Tue 01:37:06 AM 9.0950 -75.7320 141° Southeast 499 574 33,000  Level FlightAware ADS-B
Tue 01:37:45 AM 9.0360 -75.6830 141° Southeast 499 574 33,000  Level FlightAware ADS-B
Tue 01:38:21 AM 8.9810 -75.6380 141° Southeast 499 574 33,000  Level FlightAware ADS-B
Tue 01:38:57 AM 8.9260 -75.5930 141° Southeast 499 574 33,000  Level FlightAware ADS-B
Tue 01:39:50 AM 8.8030 -75.5200 150° Southeast 499 574 33,000  Level FlightAware ADS-B
Tue 01:40:26 AM 8.7050 -75.4780 157° South 503 579 33,000  Level FlightAware ADS-B
Tue 01:41:01 AM 8.6350 -75.4400 152° Southeast 504 580 33,000  Level FlightAware ADS-B
Tue 01:41:35 AM 8.5590 -75.3990 152° Southeast 502 578 33,000  Level FlightAware ADS-B
Tue 01:42:16 AM 8.4840 -75.3590 152° Southeast 502 578 33,000  Level FlightAware ADS-B
Tue 01:42:46 AM 8.4170 -75.3220 151° Southeast 501 577 33,000  Level FlightAware ADS-B
Tue 01:43:31 AM 8.3240 -75.2720 152° Southeast 499 574 33,000  Level FlightAware ADS-B
Tue 01:44:10 AM 8.2430 -75.2280 152° Southeast 499 574 33,000  Level FlightAware ADS-B
Tue 01:44:45 AM 8.1770 -75.1920 152° Southeast 498 573 33,000  Level FlightAware ADS-B
Tue 01:45:20 AM 8.0990 -75.1510 153° Southeast 497 572 33,000  Level FlightAware ADS-B
Tue 01:45:56 AM 8.0310 -75.1140 152° Southeast 496 571 33,000  Level FlightAware ADS-B
Tue 01:46:31 AM 7.9570 -75.0760 153° Southeast 494 568 33,000  Level FlightAware ADS-B
Tue 01:47:00 AM 7.8920 -75.0560 163° South 497 572 33,000  Level FlightAware ADS-B
Tue 01:47:36 AM 7.8200 -75.0420 169° South 498 573 33,000  Level FlightAware ADS-B
Tue 01:48:11 AM 7.7320 -75.0250 169° South 497 572 33,000  Level FlightAware ADS-B
Tue 01:48:51 AM 7.6420 -75.0100 171° South 498 573 33,000  Level FlightAware ADS-B
Tue 01:49:26 AM 7.5610 -74.9970 171° South 499 574 33,000  Level FlightAware ADS-B
Tue 01:50:01 AM 7.4820 -74.9850 171° South 499 574 33,000  Level FlightAware ADS-B
Tue 01:50:36 AM 7.4020 -74.9720 171° South 499 574 33,000  Level FlightAware ADS-B
Tue 01:51:10 AM 7.3210 -74.9620 173° South 499 574 33,000  Level FlightAware ADS-B
Tue 01:51:50 AM 7.2280 -74.9500 173° South 499 574 33,000  Level FlightAware ADS-B
Tue 01:52:21 AM 7.1600 -74.9420 173° South 499 574 33,000  Level FlightAware ADS-B
Tue 01:52:56 AM 7.0790 -74.9320 173° South 498 573 33,000  Level FlightAware ADS-B
Tue 01:53:35 AM 6.9880 -74.9170 171° South 497 572 33,000  Level FlightAware ADS-B
Tue 01:54:06 AM 6.9220 -74.8980 164° South 498 573 33,000  Level FlightAware ADS-B
Tue 01:54:49 AM 6.8400 -74.8650 158° South 497 572 33,000  Level FlightAware ADS-B
Tue 01:55:11 AM 6.8010 -74.8160 129° Southeast 487 560 33,000  Level FlightAware ADS-B
Tue 01:55:49 AM 6.7610 -74.7600 126° Southeast 486 559 33,000  Level FlightAware ADS-B
Tue 01:56:25 AM 6.7210 -74.7040 126° Southeast 486 559 33,000  Level FlightAware ADS-B
Tue 01:57:02 AM 6.6790 -74.6470 127° Southeast 486 559 33,000  Level FlightAware ADS-B
Tue 01:57:38 AM 6.6390 -74.5910 126° Southeast 486 559 33,000  Level FlightAware ADS-B
Tue 01:58:14 AM 6.5980 -74.5350 126° Southeast 486 559 33,000 1,714 Level FlightAware ADS-B
Tue 01:58:48 AM 6.5270 -74.4150 121° Southeast 475 547 35,000 1,818 Climbing FlightAware ADS-B
Tue 01:59:20 AM 6.4850 -74.3560 126° Southeast 476 548 35,000  Level FlightAware ADS-B
Tue 02:00:00 AM 6.4380 -74.2830 123° Southeast 475 547 35,000  Level FlightAware ADS-B
Tue 02:00:34 AM 6.4100 -74.2150 113° Southeast 469 540 35,000  Level FlightAware ADS-B
Tue 02:01:09 AM 6.3980 -74.1400 99° East 468 539 35,000  Level FlightAware ADS-B
Tue 02:01:46 AM 6.3860 -74.0590 98° East 468 539 35,000  Level FlightAware ADS-B
Tue 02:02:18 AM 6.3760 -73.9890 98° East 469 540 35,000  Level FlightAware ADS-B
Tue 02:02:54 AM 6.3660 -73.9120 97° East 469 540 35,000  Level FlightAware ADS-B
Tue 02:03:30 AM 6.3540 -73.8350 99° East 471 542 35,000  Level FlightAware ADS-B
Tue 02:04:06 AM 6.3310 -73.7580 107° East 474 545 35,000  Level FlightAware ADS-B
Tue 02:04:26 AM 6.3120 -73.7190 116° Southeast 478 550 35,000  Level FlightAware ADS-B
Tue 02:04:46 AM 6.2820 -73.6850 132° Southeast 485 558 35,000  Level FlightAware ADS-B
Tue 02:05:10 AM 6.2380 -73.6520 143° Southeast 490 564 35,000  Level FlightAware ADS-B
Tue 02:05:42 AM 6.1770 -73.6120 147° Southeast 495 570 35,000  Level FlightAware ADS-B
Tue 02:06:18 AM 6.1090 -73.5680 147° Southeast 497 572 35,000  Level FlightAware ADS-B
Tue 02:06:54 AM 6.0390 -73.5220 147° Southeast 497 572 35,000  Level FlightAware ADS-B
Tue 02:07:28 AM 5.9730 -73.4790 147° Southeast 497 572 35,000  Level FlightAware ADS-B
Tue 02:08:02 AM 5.9080 -73.4360 147° Southeast 497 572 35,000  Level FlightAware ADS-B
Tue 02:08:37 AM 5.8410 -73.3920 147° Southeast 495 570 35,000  Level FlightAware ADS-B
Tue 02:09:12 AM 5.7730 -73.3470 147° Southeast 494 568 35,000  Level FlightAware ADS-B
Tue 02:09:50 AM 5.7010 -73.2990 146° Southeast 495 570 35,000  Level FlightAware ADS-B
Tue 02:10:22 AM 5.6380 -73.2580 147° Southeast 495 570 35,000  Level FlightAware ADS-B
Tue 02:10:58 AM 5.5690 -73.2130 147° Southeast 495 570 35,000  Level FlightAware ADS-B
Tue 02:11:30 AM 5.5080 -73.1720 146° Southeast 495 570 35,000  Level FlightAware ADS-B
Tue 02:12:03 AM 5.4460 -73.1310 147° Southeast 496 571 35,000  Level FlightAware ADS-B
Tue 02:12:38 AM 5.3770 -73.0860 147° Southeast 498 573 35,000  Level FlightAware ADS-B
Tue 02:13:14 AM 5.3080 -73.0410 147° Southeast 498 573 35,000  Level FlightAware ADS-B
Tue 02:13:48 AM 5.2410 -72.9970 147° Southeast 496 571 35,000  Level FlightAware ADS-B
Tue 02:14:24 AM 5.1720 -72.9520 147° Southeast 494 568 35,000  Level FlightAware ADS-B
Tue 02:15:00 AM 5.1030 -72.9060 146° Southeast 494 568 35,000  Level FlightAware ADS-B
Tue 02:15:34 AM 5.0420 -72.8660 147° Southeast 493 567 35,000  Level FlightAware ADS-B
Tue 02:16:13 AM 4.9790 -72.8240 146° Southeast 493 567 35,000  Level FlightAware ADS-B
Tue 02:16:49 AM 4.9220 -72.7840 145° Southeast 493 567 35,000  Level FlightAware ADS-B
Tue 02:17:25 AM 4.8640 -72.7450 146° Southeast 493 567 35,000  Level FlightAware ADS-B
Tue 02:18:01 AM 4.8060 -72.7060 146° Southeast 493 567 35,000  Level FlightAware ADS-B
Tue 02:18:37 AM 4.7480 -72.6670 146° Southeast 493 567 35,000  Level FlightAware ADS-B
Tue 02:19:13 AM 4.6900 -72.6280 146° Southeast 493 567 35,000  Level FlightAware ADS-B
Tue 02:19:49 AM 4.6320 -72.5890 146° Southeast 493 567 35,000  Level FlightAware ADS-B
Tue 02:20:25 AM 4.5740 -72.5490 145° Southeast 493 567 35,000  Level FlightAware ADS-B
Tue 02:21:01 AM 4.5170 -72.5100 146° Southeast 493 567 35,000  Level FlightAware ADS-B
Tue 02:21:37 AM 4.4590 -72.4710 146° Southeast 493 567 35,000  Level FlightAware ADS-B
Tue 02:22:13 AM 4.4010 -72.4320 146° Southeast 493 567 35,000  Level FlightAware ADS-B
Tue 02:22:50 AM 4.3410 -72.3920 146° Southeast 493 567 35,000  Level FlightAware ADS-B
Tue 02:23:26 AM 4.2830 -72.3530 146° Southeast 493 567 35,000  Level FlightAware ADS-B
Tue 02:24:02 AM 4.2260 -72.3130 145° Southeast 493 567 35,000  Level FlightAware ADS-B
Tue 02:24:38 AM 4.1680 -72.2740 146° Southeast 493 567 35,000  Level FlightAware ADS-B
Tue 02:25:15 AM 4.1080 -72.2340 146° Southeast 493 567 35,000 Level FlightAware ADS-B
Tue 02:27:00 AM 3.9069 -72.1147 145° Southeast  Level FlightAware Approximate
Tue 02:28:00 AM 3.7980 -72.0379 145° Southeast  Level FlightAware Approximate
Tue 02:29:00 AM 3.6891 -71.9612 145° Southeast  Level FlightAware Approximate
Tue 02:30:00 AM 3.5802 -71.8845 145° Southeast  Level FlightAware Approximate
Tue 02:31:00 AM 3.4713 -71.8079 145° Southeast  Level FlightAware Approximate
Tue 02:32:00 AM 3.3624 -71.7312 145° Southeast  Level FlightAware Approximate
Tue 02:33:00 AM 3.2535 -71.6545 145° Southeast  Level FlightAware Approximate
Tue 02:34:00 AM 3.1446 -71.5779 145° Southeast  Level FlightAware Approximate
Tue 02:35:00 AM 3.0357 -71.5013 145° Southeast  Level FlightAware Approximate
Tue 02:36:00 AM 2.9268 -71.4247 145° Southeast  Level FlightAware Approximate
Tue 02:37:00 AM 2.8178 -71.3481 145° Southeast  Level FlightAware Approximate
Tue 02:38:00 AM 2.7089 -71.2716 145° Southeast  Level FlightAware Approximate
Tue 02:39:00 AM 2.6000 -71.1950 145° Southeast  Level FlightAware Approximate
Tue 02:40:00 AM 2.4911 -71.1184 145° Southeast  Level FlightAware Approximate
Tue 02:41:00 AM 2.3823 -71.0417 145° Southeast  Level FlightAware Approximate
Tue 02:42:00 AM 2.2734 -70.9650 145° Southeast  Level FlightAware Approximate
Tue 02:43:00 AM 2.1645 -70.8884 145° Southeast  Level FlightAware Approximate
Tue 02:44:00 AM 2.0557 -70.8118 145° Southeast  Level FlightAware Approximate
Tue 02:45:00 AM 1.9468 -70.7352 145° Southeast  Level FlightAware Approximate
Tue 02:46:00 AM 1.8379 -70.6585 145° Southeast  Level FlightAware Approximate
Tue 02:47:00 AM 1.7291 -70.5819 145° Southeast  Level FlightAware Approximate
Tue 02:48:00 AM 1.6202 -70.5054 145° Southeast  Level FlightAware Approximate
Tue 02:49:00 AM 1.5113 -70.4288 145° Southeast  Level FlightAware Approximate
Tue 02:50:00 AM 1.4024 -70.3522 145° Southeast  Level FlightAware Approximate
Tue 02:51:00 AM 1.2935 -70.2757 145° Southeast  Level FlightAware Approximate
Tue 02:52:00 AM 1.1889 -70.1937 138° Southeast  Level FlightAware Approximate
Tue 02:53:00 AM 1.0895 -70.1052 138° Southeast  Level FlightAware Approximate
Tue 02:54:00 AM 0.9901 -70.0167 138° Southeast  Level FlightAware Approximate
Tue 02:55:00 AM 0.8907 -69.9282 138° Southeast  Level FlightAware Approximate
Tue 02:56:00 AM 0.7912 -69.8397 138° Southeast  Level FlightAware Approximate
Tue 02:57:00 AM 0.6918 -69.7512 138° Southeast  Level FlightAware Approximate
Tue 02:58:00 AM 0.5924 -69.6627 138° Southeast  Level FlightAware Approximate
Tue 02:59:00 AM 0.4930 -69.5742 138° Southeast  Level FlightAware Approximate
Tue 03:00:00 AM 0.3936 -69.4857 138° Southeast  Level FlightAware Approximate
Tue 03:01:00 AM 0.2942 -69.3972 138° Southeast  Level FlightAware Approximate
Tue 03:02:00 AM 0.1947 -69.3087 138° Southeast  Level FlightAware Approximate
Tue 03:03:00 AM 0.0953 -69.2202 138° Southeast  Level FlightAware Approximate
Tue 03:04:00 AM -0.0041 -69.1317 138° Southeast  Level FlightAware Approximate
Tue 03:05:00 AM -0.1035 -69.0432 138° Southeast  Level FlightAware Approximate
Tue 03:06:00 AM -0.2029 -68.9547 138° Southeast  Level FlightAware Approximate
Tue 03:07:00 AM -0.3024 -68.8662 138° Southeast  Level FlightAware Approximate
Tue 03:08:00 AM -0.4018 -68.7778 138° Southeast  Level FlightAware Approximate
Tue 03:09:00 AM -0.5012 -68.6893 138° Southeast  Level FlightAware Approximate
Tue 03:10:00 AM -0.6006 -68.6008 138° Southeast  Level FlightAware Approximate
Tue 03:11:00 AM -0.7000 -68.5123 138° Southeast  Level FlightAware Approximate
Tue 03:12:00 AM -0.7994 -68.4238 138° Southeast  Level FlightAware Approximate
Tue 03:13:00 AM -0.8989 -68.3352 138° Southeast  Level FlightAware Approximate
Tue 03:14:00 AM -0.9983 -68.2467 138° Southeast  Level FlightAware Approximate
Tue 03:15:00 AM -1.0977 -68.1582 138° Southeast  Level FlightAware Approximate
Tue 03:16:00 AM -1.1971 -68.0697 138° Southeast  Level FlightAware Approximate
Tue 03:17:00 AM -1.2965 -67.9811 138° Southeast  Level FlightAware Approximate
Tue 03:18:00 AM -1.3959 -67.8926 138° Southeast  Level FlightAware Approximate
Tue 03:19:00 AM -1.4953 -67.8041 138° Southeast  Level FlightAware Approximate
Tue 03:20:00 AM -1.5947 -67.7155 138° Southeast  Level FlightAware Approximate
Tue 03:21:00 AM -1.6941 -67.6270 138° Southeast  Level FlightAware Approximate
Tue 03:22:00 AM -1.7934 -67.5384 138° Southeast  Level FlightAware Approximate
Tue 03:23:00 AM -1.8928 -67.4498 138° Southeast  Level FlightAware Approximate
Tue 03:24:00 AM -1.9922 -67.3612 138° Southeast  Level FlightAware Approximate
Tue 03:25:00 AM -2.0916 -67.2726 138° Southeast  Level FlightAware Approximate
Tue 03:26:00 AM -2.1909 -67.1840 138° Southeast  Level FlightAware Approximate
Tue 03:27:00 AM -2.2903 -67.0954 138° Southeast  Level FlightAware Approximate
Tue 03:28:00 AM -2.3897 -67.0067 138° Southeast  Level FlightAware Approximate
Tue 03:29:00 AM -2.4890 -66.9181 138° Southeast  Level FlightAware Approximate
Tue 03:30:00 AM -2.5884 -66.8294 138° Southeast  Level FlightAware Approximate
Tue 03:31:00 AM -2.6877 -66.7407 138° Southeast  Level FlightAware Approximate
Tue 03:32:00 AM -2.7870 -66.6520 138° Southeast  Level FlightAware Approximate
Tue 03:33:00 AM -2.8863 -66.5633 138° Southeast  Level FlightAware Approximate
Tue 03:34:00 AM -2.9857 -66.4746 138° Southeast  Level FlightAware Approximate
Tue 03:35:00 AM -3.0850 -66.3859 138° Southeast  Level FlightAware Approximate
Tue 03:36:00 AM -3.1843 -66.2971 138° Southeast  Level FlightAware Approximate
Tue 03:37:00 AM -3.2836 -66.2084 138° Southeast  Level FlightAware Approximate
Tue 03:38:00 AM -3.3829 -66.1196 138° Southeast  Level FlightAware Approximate
Tue 03:39:00 AM -3.4822 -66.0307 138° Southeast  Level FlightAware Approximate
Tue 03:40:00 AM -3.5814 -65.9419 138° Southeast  Level FlightAware Approximate
Tue 03:41:00 AM -3.6807 -65.8531 138° Southeast  Level FlightAware Approximate
Tue 03:42:00 AM -3.7799 -65.7642 138° Southeast  Level FlightAware Approximate
Tue 03:43:00 AM -3.8792 -65.6753 138° Southeast  Level FlightAware Approximate
Tue 03:44:00 AM -3.9784 -65.5864 138° Southeast  Level FlightAware Approximate
Tue 03:45:00 AM -4.0776 -65.4975 138° Southeast  Level FlightAware Approximate
Tue 03:46:00 AM -4.1769 -65.4085 138° Southeast  Level FlightAware Approximate
Tue 03:47:00 AM -4.2761 -65.3195 138° Southeast  Level FlightAware Approximate
Tue 03:48:00 AM -4.3753 -65.2306 138° Southeast  Level FlightAware Approximate
Tue 03:49:00 AM -4.4745 -65.1415 138° Southeast  Level FlightAware Approximate
Tue 03:50:00 AM -4.5736 -65.0525 138° Southeast  Level FlightAware Approximate
Tue 03:51:00 AM -4.6728 -64.9634 138° Southeast  Level FlightAware Approximate
Tue 03:52:00 AM -4.7719 -64.8743 138° Southeast  Level FlightAware Approximate
Tue 03:53:00 AM -4.8711 -64.7852 138° Southeast  Level FlightAware Approximate
Tue 03:54:00 AM -4.9702 -64.6961 138° Southeast  Level FlightAware Approximate
Tue 03:55:00 AM -5.0695 -64.6067 138° Southeast  Level FlightAware Approximate
Tue 03:56:00 AM -5.1688 -64.5174 138° Southeast  Level FlightAware Approximate
Tue 03:57:00 AM -5.2680 -64.4280 138° Southeast  Level FlightAware Approximate
Tue 03:58:00 AM -5.3673 -64.3386 138° Southeast  Level FlightAware Approximate
Tue 03:59:00 AM -5.4665 -64.2491 138° Southeast  Level FlightAware Approximate
Tue 04:00:00 AM -5.5658 -64.1597 138° Southeast  Level FlightAware Approximate
Tue 04:01:00 AM -5.6650 -64.0702 138° Southeast  Level FlightAware Approximate
Tue 04:02:00 AM -5.7642 -63.9806 138° Southeast  Level FlightAware Approximate
Tue 04:03:00 AM -5.8634 -63.8910 138° Southeast  Level FlightAware Approximate
Tue 04:04:00 AM -5.9624 -63.8016 138° Southeast  Level FlightAware Approximate
Tue 04:05:00 AM -6.0614 -63.7121 138° Southeast  Level FlightAware Approximate
Tue 04:06:00 AM -6.1603 -63.6226 138° Southeast  Level FlightAware Approximate
Tue 04:07:00 AM -6.2593 -63.5331 138° Southeast  Level FlightAware Approximate
Tue 04:08:00 AM -6.3582 -63.4435 138° Southeast  Level FlightAware Approximate
Tue 04:09:00 AM -6.4571 -63.3539 138° Southeast  Level FlightAware Approximate
Tue 04:10:00 AM -6.5560 -63.2643 138° Southeast  Level FlightAware Approximate
Tue 04:11:00 AM -6.6549 -63.1746 138° Southeast  Level FlightAware Approximate
Tue 04:12:00 AM -6.7538 -63.0849 138° Southeast  Level FlightAware Approximate
Tue 04:13:00 AM -6.8527 -62.9951 138° Southeast  Level FlightAware Approximate
Tue 04:14:00 AM -6.9515 -62.9053 138° Southeast  Level FlightAware Approximate
Tue 04:15:00 AM -7.0504 -62.8155 138° Southeast  Level FlightAware Approximate
Tue 04:16:00 AM -7.1492 -62.7257 138° Southeast  Level FlightAware Approximate
Tue 04:17:00 AM -7.2480 -62.6358 138° Southeast  Level FlightAware Approximate
Tue 04:18:00 AM -7.3467 -62.5458 138° Southeast  Level FlightAware Approximate
Tue 04:19:00 AM -7.4455 -62.4558 138° Southeast  Level FlightAware Approximate
Tue 04:20:00 AM -7.5442 -62.3658 138° Southeast  Level FlightAware Approximate
Tue 04:21:00 AM -7.6429 -62.2758 138° Southeast  Level FlightAware Approximate
Tue 04:22:00 AM -7.7416 -62.1857 138° Southeast  Level FlightAware Approximate
Tue 04:23:00 AM -7.8403 -62.0955 138° Southeast  Level FlightAware Approximate
Tue 04:24:00 AM -7.9390 -62.0053 138° Southeast  Level FlightAware Approximate
Tue 04:25:00 AM -8.0376 -61.9151 138° Southeast  Level FlightAware Approximate
Tue 04:26:00 AM -8.1364 -61.8246 138° Southeast  Level FlightAware Approximate
Tue 04:27:00 AM -8.2352 -61.7342 138° Southeast  Level FlightAware Approximate
Tue 04:28:00 AM -8.3340 -61.6436 138° Southeast  Level FlightAware Approximate
Tue 04:29:00 AM -8.4327 -61.5531 138° Southeast  Level FlightAware Approximate
Tue 04:30:00 AM -8.5314 -61.4624 138° Southeast  Level FlightAware Approximate
Tue 04:31:00 AM -8.6301 -61.3718 138° Southeast  Level FlightAware Approximate
Tue 04:32:00 AM -8.7288 -61.2811 138° Southeast  Level FlightAware Approximate
Tue 04:33:00 AM -8.8274 -61.1903 138° Southeast  Level FlightAware Approximate
Tue 04:34:00 AM -8.9261 -61.0995 138° Southeast  Level FlightAware Approximate
Tue 04:35:00 AM -9.0247 -61.0086 138° Southeast  Level FlightAware Approximate
Tue 04:36:00 AM -9.1233 -60.9177 138° Southeast  Level FlightAware Approximate
Tue 04:37:00 AM -9.2218 -60.8268 138° Southeast  Level FlightAware Approximate
Tue 04:38:00 AM -9.3204 -60.7358 138° Southeast  Level FlightAware Approximate
Tue 04:39:00 AM -9.4189 -60.6447 138° Southeast  Level FlightAware Approximate
Tue 04:40:00 AM -9.5174 -60.5536 138° Southeast  Level FlightAware Approximate
Tue 04:41:00 AM -9.6159 -60.4624 138° Southeast  Level FlightAware Approximate
Tue 04:42:00 AM -9.7143 -60.3712 138° Southeast  Level FlightAware Approximate
Tue 04:43:00 AM -9.8127 -60.2799 138° Southeast  Level FlightAware Approximate
Tue 04:44:00 AM -9.9111 -60.1886 138° Southeast  Level FlightAware Approximate
Tue 04:45:00 AM -10.0095 -60.0972 138° Southeast  Level FlightAware Approximate
Tue 04:46:00 AM -10.1078 -60.0058 138° Southeast  Level FlightAware Approximate
Tue 04:47:00 AM -10.2062 -59.9143 138° Southeast  Level FlightAware Approximate
Tue 04:48:00 AM -10.3045 -59.8227 138° Southeast  Level FlightAware Approximate
Tue 04:49:00 AM -10.4027 -59.7311 137° Southeast  Level FlightAware Approximate
Tue 04:50:00 AM -10.5010 -59.6395 137° Southeast  Level FlightAware Approximate
Tue 04:51:00 AM -10.5992 -59.5477 137° Southeast  Level FlightAware Approximate
Tue 04:52:00 AM -10.6974 -59.4560 137° Southeast  Level FlightAware Approximate
Tue 04:53:00 AM -10.7956 -59.3641 137° Southeast  Level FlightAware Approximate
Tue 04:54:00 AM -10.8937 -59.2722 137° Southeast  Level FlightAware Approximate
Tue 04:55:00 AM -10.9918 -59.1803 137° Southeast  Level FlightAware Approximate
Tue 04:56:00 AM -11.0899 -59.0882 137° Southeast  Level FlightAware Approximate
Tue 04:57:00 AM -11.1880 -58.9962 137° Southeast  Level FlightAware Approximate
Tue 04:58:00 AM -11.2860 -58.9040 137° Southeast  Level FlightAware Approximate
Tue 04:59:00 AM -11.3840 -58.8118 137° Southeast  Level FlightAware Approximate
Tue 05:00:00 AM -11.4819 -58.7195 137° Southeast  Level FlightAware Approximate
Tue 05:01:00 AM -11.5799 -58.6272 137° Southeast  Level FlightAware Approximate
Tue 05:02:00 AM -11.6778 -58.5348 137° Southeast  Level FlightAware Approximate
Tue 05:03:00 AM -11.7757 -58.4423 137° Southeast  Level FlightAware Approximate
Tue 05:04:00 AM -11.8735 -58.3498 137° Southeast  Level FlightAware Approximate
Tue 05:05:00 AM -11.9713 -58.2572 137° Southeast  Level FlightAware Approximate
Tue 05:06:00 AM -12.0691 -58.1645 137° Southeast  Level FlightAware Approximate
Tue 05:07:00 AM -12.1669 -58.0718 137° Southeast  Level FlightAware Approximate
Tue 05:08:00 AM -12.2646 -57.9790 137° Southeast  Level FlightAware Approximate
Tue 05:09:00 AM -12.3623 -57.8861 137° Southeast  Level FlightAware Approximate
Tue 05:10:00 AM -12.4600 -57.7932 137° Southeast  Level FlightAware Approximate
Tue 05:11:00 AM -12.5576 -57.7002 137° Southeast  Level FlightAware Approximate
Tue 05:12:00 AM -12.6552 -57.6071 137° Southeast  Level FlightAware Approximate
Tue 05:13:00 AM -12.7528 -57.5140 137° Southeast  Level FlightAware Approximate
Tue 05:14:00 AM -12.8504 -57.4207 137° Southeast  Level FlightAware Approximate
Tue 05:15:00 AM -12.9479 -57.3274 137° Southeast  Level FlightAware Approximate
Tue 05:16:00 AM -13.0453 -57.2341 137° Southeast  Level FlightAware Approximate
Tue 05:17:00 AM -13.1428 -57.1406 137° Southeast  Level FlightAware Approximate
Tue 05:18:00 AM -13.2402 -57.0471 137° Southeast  Level FlightAware Approximate
Tue 05:19:00 AM -13.3376 -56.9535 137° Southeast  Level FlightAware Approximate
Tue 05:20:00 AM -13.4349 -56.8598 137° Southeast  Level FlightAware Approximate
Tue 05:21:00 AM -13.5322 -56.7661 137° Southeast  Level FlightAware Approximate
Tue 05:22:00 AM -13.6295 -56.6723 137° Southeast  Level FlightAware Approximate
Tue 05:23:00 AM -13.7267 -56.5784 137° Southeast  Level FlightAware Approximate
Tue 05:24:00 AM -13.8239 -56.4844 137° Southeast  Level FlightAware Approximate
Tue 05:25:00 AM -13.9211 -56.3904 137° Southeast  Level FlightAware Approximate
Tue 05:26:00 AM -14.0182 -56.2962 137° Southeast  Level FlightAware Approximate
Tue 05:27:00 AM -14.1153 -56.2020 137° Southeast  Level FlightAware Approximate
Tue 05:28:00 AM -14.2123 -56.1077 137° Southeast  Level FlightAware Approximate
Tue 05:29:00 AM -14.3093 -56.0134 137° Southeast  Level FlightAware Approximate
Tue 05:30:00 AM -14.4063 -55.9189 137° Southeast  Level FlightAware Approximate
Tue 05:31:00 AM -14.5033 -55.8243 137° Southeast  Level FlightAware Approximate
Tue 05:32:00 AM -14.6002 -55.7297 137° Southeast  Level FlightAware Approximate
Tue 05:33:00 AM -14.6970 -55.6350 137° Southeast  Level FlightAware Approximate
Tue 05:34:00 AM -14.7938 -55.5402 137° Southeast  Level FlightAware Approximate
Tue 05:35:00 AM -14.8906 -55.4454 137° Southeast  Level FlightAware Approximate
Tue 05:36:00 AM -14.9874 -55.3504 137° Southeast  Level FlightAware Approximate
Tue 05:37:00 AM -15.0841 -55.2554 137° Southeast  Level FlightAware Approximate
Tue 05:38:00 AM -15.1808 -55.1602 136° Southeast  Level FlightAware Approximate
Tue 05:39:00 AM -15.2774 -55.0650 136° Southeast  Level FlightAware Approximate
Tue 05:40:00 AM -15.3740 -54.9697 136° Southeast  Level FlightAware Approximate
Tue 05:41:00 AM -15.4705 -54.8743 136° Southeast  Level FlightAware Approximate
Tue 05:42:00 AM -15.5670 -54.7788 136° Southeast  Level FlightAware Approximate
Tue 05:43:00 AM -15.6635 -54.6833 136° Southeast  Level FlightAware Approximate
Tue 05:44:00 AM -15.7599 -54.5876 136° Southeast  Level FlightAware Approximate
Tue 05:45:00 AM -15.8563 -54.4919 136° Southeast  Level FlightAware Approximate
Tue 05:46:00 AM -15.9527 -54.3960 136° Southeast  Level FlightAware Approximate
Tue 05:47:00 AM -16.0490 -54.3001 136° Southeast  Level FlightAware Approximate
Tue 05:48:00 AM -16.1452 -54.2040 136° Southeast  Level FlightAware Approximate
Tue 05:49:00 AM -16.2414 -54.1079 136° Southeast  Level FlightAware Approximate
Tue 05:50:00 AM -16.3376 -54.0117 136° Southeast  Level FlightAware Approximate
Tue 05:51:00 AM -16.4337 -53.9154 136° Southeast  Level FlightAware Approximate
Tue 05:52:00 AM -16.5298 -53.8190 136° Southeast  Level FlightAware Approximate
Tue 05:53:00 AM -16.6259 -53.7225 136° Southeast  Level FlightAware Approximate
Tue 05:54:00 AM -16.7218 -53.6259 136° Southeast  Level FlightAware Approximate
Tue 05:55:00 AM -16.8178 -53.5292 136° Southeast  Level FlightAware Approximate
Tue 05:56:00 AM -16.9137 -53.4324 136° Southeast  Level FlightAware Approximate
Tue 05:57:00 AM -17.0096 -53.3355 136° Southeast  Level FlightAware Approximate
Tue 05:58:00 AM -17.1054 -53.2385 136° Southeast  Level FlightAware Approximate
Tue 05:59:00 AM -17.2011 -53.1414 136° Southeast  Level FlightAware Approximate
Tue 06:00:00 AM -17.2969 -53.0442 136° Southeast  Level FlightAware Approximate
Tue 06:01:00 AM -17.3925 -52.9469 136° Southeast  Level FlightAware Approximate
Tue 06:02:00 AM -17.4881 -52.8495 136° Southeast  Level FlightAware Approximate
Tue 06:03:00 AM -17.5837 -52.7520 136° Southeast  Level FlightAware Approximate
Tue 06:04:00 AM -17.6794 -52.6542 136° Southeast  Level FlightAware Approximate
Tue 06:05:00 AM -17.7751 -52.5564 136° Southeast  Level FlightAware Approximate
Tue 06:06:00 AM -17.8707 -52.4584 136° Southeast  Level FlightAware Approximate
Tue 06:07:00 AM -17.9662 -52.3603 136° Southeast  Level FlightAware Approximate
Tue 06:08:00 AM -18.0617 -52.2621 136° Southeast  Level FlightAware Approximate
Tue 06:08:18 AM -18.9340 -50.7430 136° Southeast 538 619 37,000  Level FlightAware ADS-B
Tue 06:08:59 AM -18.9980 -50.6710 133° Southeast 538 619 37,000  Level FlightAware ADS-B
Tue 06:09:00 AM -18.1572 -52.1638 136° Southeast  Level FlightAware Approximate
Tue 06:09:35 AM -19.0700 -50.5940 135° Southeast 540 621 37,000  Level FlightAware ADS-B
Tue 06:10:09 AM -19.1280 -50.5310 134° Southeast 541 623 37,000  Level FlightAware ADS-B
Tue 06:10:44 AM -19.1900 -50.4630 134° Southeast 541 623 37,000  Level FlightAware ADS-B
Tue 06:11:29 AM -19.2520 -50.3950 134° Southeast 541 623 37,000  Level FlightAware ADS-B
Tue 06:12:01 AM -19.3230 -50.3170 134° Southeast 538 619 37,000  Level FlightAware ADS-B
Tue 06:12:38 AM -19.3880 -50.2460 134° Southeast 538 619 37,000  Level FlightAware ADS-B
Tue 06:13:13 AM -19.4500 -50.1780 134° Southeast 538 619 37,000  Level FlightAware ADS-B
Tue 06:13:45 AM -19.5040 -50.1180 134° Southeast 538 619 37,000  Level FlightAware ADS-B
Tue 06:14:23 AM -19.5670 -50.0490 134° Southeast 537 618 37,000  Level FlightAware ADS-B
Tue 06:14:59 AM -19.6300 -49.9790 134° Southeast 537 618 37,000  Level FlightAware ADS-B
Tue 06:15:30 AM -19.6830 -49.9220 135° Southeast 538 619 37,000  Level FlightAware ADS-B
Tue 06:16:05 AM -19.7450 -49.8540 134° Southeast 538 619 37,000  Level FlightAware ADS-B
Tue 06:16:38 AM -19.8020 -49.7910 134° Southeast 538 619 37,000  Level FlightAware ADS-B
Tue 06:17:17 AM -19.8720 -49.7150 134° Southeast 538 619 37,000  Level FlightAware ADS-B
Tue 06:17:49 AM -19.9260 -49.6570 135° Southeast 537 618 37,000  Level FlightAware ADS-B
Tue 06:18:27 AM -19.9930 -49.5830 134° Southeast 539 620 37,000  Level FlightAware ADS-B
Tue 06:19:03 AM -20.0560 -49.5140 134° Southeast 540 621 37,000  Level FlightAware ADS-B
Tue 06:19:39 AM -20.1180 -49.4450 134° Southeast 539 620 37,000  Level FlightAware ADS-B
Tue 06:20:11 AM -20.1740 -49.3830 134° Southeast 538 619 37,000  Level FlightAware ADS-B
Tue 06:20:47 AM -20.2350 -49.3160 134° Southeast 539 620 37,000  Level FlightAware ADS-B
Tue 06:21:21 AM -20.2950 -49.2500 134° Southeast 541 623 37,000  Level FlightAware ADS-B
Tue 06:21:53 AM -20.3500 -49.1900 134° Southeast 542 624 37,000  Level FlightAware ADS-B
Tue 06:22:31 AM -20.4190 -49.1190 136° Southeast 541 623 37,000  Level FlightAware ADS-B
Tue 06:23:07 AM -20.4860 -49.0520 137° Southeast 540 621 37,000  Level FlightAware ADS-B
Tue 06:23:43 AM -20.5520 -48.9880 138° Southeast 539 620 37,000  Level FlightAware ADS-B
Tue 06:24:16 AM -20.6130 -48.9300 138° Southeast 538 619 37,000  Level FlightAware ADS-B
Tue 06:24:51 AM -20.6780 -48.8680 138° Southeast 537 618 37,000  Level FlightAware ADS-B
Tue 06:25:27 AM -20.7440 -48.8040 138° Southeast 537 618 37,000  Level FlightAware ADS-B
Tue 06:26:01 AM -20.8070 -48.7440 138° Southeast 538 619 37,000  Level FlightAware ADS-B
Tue 06:26:37 AM -20.8740 -48.6800 138° Southeast 538 619 37,000  Level FlightAware ADS-B
Tue 06:27:13 AM -20.9410 -48.6150 138° Southeast 540 621 37,000  Level FlightAware ADS-B
Tue 06:27:49 AM -21.0070 -48.5510 138° Southeast 540 621 37,000  Level FlightAware ADS-B
Tue 06:28:23 AM -21.0720 -48.4890 138° Southeast 541 623 37,000  Level FlightAware ADS-B
Tue 06:28:53 AM -21.1260 -48.4360 138° Southeast 542 624 37,000  Level FlightAware ADS-B
Tue 06:29:39 AM -21.2090 -48.3550 138° Southeast 544 626 37,000  Level FlightAware ADS-B
Tue 06:30:15 AM -21.2790 -48.2870 138° Southeast 542 624 37,000  Level FlightAware ADS-B
Tue 06:30:49 AM -21.3430 -48.2240 137° Southeast 544 626 37,000  Level FlightAware ADS-B
Tue 06:31:25 AM -21.4090 -48.1600 138° Southeast 542 624 37,000  Level FlightAware ADS-B
Tue 06:31:57 AM -21.4660 -48.1050 138° Southeast 543 625 37,000  Level FlightAware ADS-B
Tue 06:32:33 AM -21.5370 -48.0350 137° Southeast 544 626 37,000  Level FlightAware ADS-B
Tue 06:33:09 AM -21.5990 -47.9740 138° Southeast 545 627 37,000 -333 Level FlightAware ADS-B
Tue 06:33:45 AM -21.6690 -47.9050 138° Southeast 544 626 36,600 -971 Descending FlightAware ADS-B
Tue 06:34:17 AM -21.7260 -47.8500 138° Southeast 545 627 35,900 -1,043 Descending FlightAware ADS-B
Tue 06:34:54 AM -21.7970 -47.7800 138° Southeast 537 618 35,400 -1,147 Descending FlightAware ADS-B
Tue 06:35:25 AM -21.8540 -47.7230 137° Southeast 527 606 34,600 -2,000 Descending FlightAware ADS-B
Tue 06:36:03 AM -21.9190 -47.6600 138° Southeast 524 603 33,100 -2,320 Descending FlightAware ADS-B
Tue 06:36:40 AM -21.9880 -47.5910 137° Southeast 515 593 31,700 -2,250 Descending FlightAware ADS-B
Tue 06:37:15 AM -22.0460 -47.5340 138° Southeast 507 583 30,400 -2,382 Descending FlightAware ADS-B
Tue 06:37:48 AM -22.1050 -47.4760 138° Southeast 501 577 29,000 -2,174 Descending FlightAware ADS-B
Tue 06:38:24 AM -22.1650 -47.4170 138° Southeast 490 564 27,900 -1,913 Descending FlightAware ADS-B
Tue 06:38:57 AM -22.2190 -47.3630 137° Southeast 478 550 26,800 -1,909 Descending FlightAware ADS-B
Tue 06:39:30 AM -22.2720 -47.3100 137° Southeast 467 537 25,800 -1,833 Descending FlightAware ADS-B
Tue 06:40:09 AM -22.3350 -47.2480 138° Southeast 452 520 24,600 -1,840 Descending FlightAware ADS-B
Tue 06:40:45 AM -22.3900 -47.1930 137° Southeast 439 505 23,500 -1,775 Descending FlightAware ADS-B
Tue 06:41:20 AM -22.4410 -47.1420 137° Southeast 426 490 22,500 -1,701 Descending FlightAware ADS-B
Tue 06:41:52 AM -22.4850 -47.0990 138° Southeast 414 476 21,600 -1,688 Descending FlightAware ADS-B
Tue 06:42:24 AM -22.5300 -47.0540 137° Southeast 396 456 20,700 -1,433 Descending FlightAware ADS-B
Tue 06:42:59 AM -22.5820 -47.0110 143° Southeast 402 463 20,000 -1,437 Descending FlightAware ADS-B
Tue 06:43:35 AM -22.6380 -46.9780 151° Southeast 399 459 19,000 -1,800 Descending FlightAware ADS-B
Tue 06:44:09 AM -22.6950 -46.9450 152° Southeast 386 444 17,900 -2,027 Descending FlightAware ADS-B
Tue 06:44:49 AM -22.7560 -46.9100 152° Southeast 364 419 16,500 -2,080 Descending FlightAware ADS-B
Tue 06:45:24 AM -22.8100 -46.8800 153° Southeast 366 421 15,300 -1,818 Descending FlightAware ADS-B
Tue 06:45:55 AM -22.8550 -46.8540 152° Southeast 360 414 14,500 -1,629 Descending FlightAware ADS-B
Tue 06:46:34 AM -22.9130 -46.8220 153° Southeast 346 398 13,400 -1,600 Descending FlightAware ADS-B
Tue 06:47:10 AM -22.9650 -46.7930 153° Southeast 342 394 12,500 -1,629 Descending FlightAware ADS-B
Tue 06:47:44 AM -23.0150 -46.7650 153° Southeast 346 398 11,500 -1,565 Descending FlightAware ADS-B
Tue 06:48:19 AM -23.0650 -46.7370 153° Southeast 340 391 10,700 -943 Descending FlightAware ADS-B
Tue 06:48:54 AM -23.1110 -46.7110 153° Southeast 310 357 10,400 -455 Descending FlightAware ADS-B
Tue 06:49:25 AM -23.1490 -46.6890 152° Southeast 294 338 10,200 -480 Descending FlightAware ADS-B
Tue 06:49:44 AM -23.1670 -46.6680 133° Southeast 291 335 10,000 -621 Descending FlightAware ADS-B
Tue 06:49:54 AM -23.1730 -46.6540 115° Southeast 291 335 9,900 -889 Descending FlightAware ADS-B
Tue 06:50:11 AM -23.1810 -46.6330 113° Southeast 294 338 9,600 -1,167 Descending FlightAware ADS-B
Tue 06:50:30 AM -23.1910 -46.6040 111° Southeast 294 338 9,200 -1,256 Descending FlightAware ADS-B
Tue 06:50:54 AM -23.2020 -46.5710 110° East 290 334 8,700 -1,235 Descending FlightAware ADS-B
Tue 06:51:04 AM -23.2070 -46.5570 111° Southeast 293 337 8,500 -1,200 Descending FlightAware ADS-B
Tue 06:51:24 AM -23.2160 -46.5290 109° East 291 335 8,100 -878 Descending FlightAware ADS-B
Tue 06:51:45 AM -23.2260 -46.5010 111° Southeast 283 326 7,900 -511 Descending FlightAware ADS-B
Tue 06:52:11 AM -23.2370 -46.4690 111° Southeast 270 311 7,700 -652 Descending FlightAware ADS-B
Tue 06:52:31 AM -23.2460 -46.4430 111° Southeast 260 299 7,400 -900 Descending FlightAware ADS-B
Tue 06:52:51 AM -23.2550 -46.4180 111° Southeast 260 299 7,100 -600 Descending FlightAware ADS-B
Tue 06:53:11 AM -23.2630 -46.3940 110° East 249 287 7,000 -353 Descending FlightAware ADS-B
Tue 06:53:25 AM -23.2690 -46.3770 111° Southeast 242 278 6,900 -529 Descending FlightAware ADS-B
Tue 06:53:45 AM -23.2760 -46.3550 109° East 240 276 6,700 -585 Descending FlightAware ADS-B
Tue 06:54:06 AM -23.2840 -46.3310 110° East 239 275 6,500 -600 Descending FlightAware ADS-B
Tue 06:54:35 AM -23.2950 -46.2990 111° Southeast 234 269 6,200 -735 Descending FlightAware ADS-B
Tue 06:54:55 AM -23.3060 -46.2780 120° Southeast 234 269 5,900 -720 Descending FlightAware ADS-B
Tue 06:55:00 AM -23.3100 -46.2740 137° Southeast 225 259 5,900 -800 Level FlightAware ADS-B
Tue 06:55:10 AM -23.3190 -46.2680 149° Southeast 220 253 5,700 -1,200 Descending FlightAware ADS-B
Tue 06:55:20 AM -23.3290 -46.2650 165° South 212 244 5,500 -750 Descending FlightAware ADS-B
Tue 06:55:50 AM -23.3560 -46.2710 192° South 199 229 5,200 -655 Descending FlightAware ADS-B
Tue 06:56:15 AM -23.3770 -46.2830 208° Southwest 189 217 4,900 -581 Descending FlightAware ADS-B
Tue 06:56:21 AM -23.3790 -46.2850 223° Southwest 186 214 4,900  Level FlightAware ADS-B
Tue 06:56:26 AM -23.3830 -46.2890 223° Southwest 178 205 4,900  Level FlightAware ADS-B
Tue 06:56:41 AM -23.3870 -46.2980 244° Southwest 175 201 4,900  Level FlightAware ADS-B
Tue 06:56:50 AM -23.3900 -46.3090 253° West 175 201 4,900 -200 Level FlightAware ADS-B
Tue 06:57:11 AM -23.3950 -46.3260 252° West 173 199 4,800 -600 Descending FlightAware ADS-B
Tue 06:57:30 AM -23.4000 -46.3420 251° West 174 200 4,500 -933 Descending FlightAware ADS-B
Tue 06:57:56 AM -23.4050 -46.3640 256° West 163 188 4,100 -894 Descending FlightAware ADS-B
Tue 06:58:17 AM -23.4090 -46.3790 254° West 149 171 3,800 -682 Descending FlightAware ADS-B
Tue 06:58:40 AM -23.4120 -46.3890 252° West 149 171 3,600 -652 Descending FlightAware ADS-B
Tue 06:59:03 AM -23.4170 -46.4060 252° West 145 167 3,300 -766 Descending FlightAware ADS-B
Tue 06:59:27 AM -23.4220 -46.4240 253° West 148 170 3,000 -720 Descending FlightAware ADS-B
Tue 06:59:53 AM -23.4270 -46.4420 253° West 155 178 2,700 -290 Descending FlightAware ADS-B
Tue 07:00:29 AM -23.4320 -46.4620 255° West 155 178 2,700  Level FlightAware ADS-B

Login

Don't have an account? Register now (free) for customized features, flight alerts, and more!